Time,TemperatureF,DewpointF,PressureIn,WindDirection,WindDirectionDegrees,WindSpeedMPH,WindSpeedGustMPH,Humidity,HourlyPrecipIn,Conditions,Clouds,dailyrainin,SoftwareType,DateUTC
2013-05-02 00:01:00,39.4,35.6,30.38,NNE,18,18.0,40.0,86,0.00,,,0.00,meteohub,2013-05-02 05:01:00,
2013-05-02 00:06:00,39.0,35.2,30.39,NNW,340,18.0,40.0,86,0.00,,,0.00,meteohub,2013-05-02 05:06:00,
2013-05-02 00:12:00,38.7,35.8,30.40,NNW,337,19.0,37.0,89,0.01,,,0.01,meteohub,2013-05-02 05:12:00,
2013-05-02 00:17:00,38.3,36.0,30.39,NE,37,16.0,37.0,91,0.03,,,0.03,meteohub,2013-05-02 05:17:00,
2013-05-02 00:22:00,37.9,35.8,30.39,NE,51,25.0,37.0,92,0.07,,,0.07,meteohub,2013-05-02 05:22:00,
2013-05-02 00:27:00,37.9,35.8,30.40,North,4,19.0,31.0,92,0.09,,,0.09,meteohub,2013-05-02 05:27:00,
2013-05-02 00:32:00,37.8,36.0,30.43,North,350,17.0,31.0,93,0.10,,,0.10,meteohub,2013-05-02 05:32:00,
2013-05-02 00:37:00,37.8,36.1,30.41,ENE,58,21.0,31.0,94,0.11,,,0.11,meteohub,2013-05-02 05:37:00,
2013-05-02 00:42:00,37.6,36.3,30.38,NE,50,30.0,30.0,95,0.13,,,0.13,meteohub,2013-05-02 05:42:00,
2013-05-02 00:47:00,37.6,36.3,30.38,NE,37,17.0,35.0,95,0.13,,,0.13,meteohub,2013-05-02 05:47:00,
2013-05-02 00:52:00,37.6,36.3,30.40,North,5,23.0,35.0,95,0.15,,,0.15,meteohub,2013-05-02 05:52:00,
2013-05-02 00:57:00,37.8,36.7,30.44,NW,304,11.0,35.0,96,0.16,,,0.16,meteohub,2013-05-02 05:57:00,
2013-05-02 01:02:00,37.8,36.7,30.43,NNW,340,18.0,29.0,96,0.17,,,0.17,meteohub,2013-05-02 06:02:00,
2013-05-02 01:07:00,37.6,36.5,30.41,North,11,17.0,29.0,96,0.17,,,0.18,meteohub,2013-05-02 06:07:00,
2013-05-02 01:12:00,37.2,36.1,30.43,NNW,346,15.0,26.0,96,0.18,,,0.19,meteohub,2013-05-02 06:12:00,
2013-05-02 01:17:00,37.0,36.0,30.38,NE,51,20.0,26.0,96,0.15,,,0.20,meteohub,2013-05-02 06:17:00,
2013-05-02 01:22:00,36.9,35.8,30.38,North,354,21.0,35.0,96,0.14,,,0.22,meteohub,2013-05-02 06:22:00,
2013-05-02 01:27:00,36.9,35.8,30.41,NNW,345,13.0,38.0,96,0.15,,,0.23,meteohub,2013-05-02 06:27:00,
2013-05-02 01:32:00,36.9,35.8,30.44,North,5,10.0,38.0,96,0.15,,,0.25,meteohub,2013-05-02 06:32:00,
2013-05-02 01:37:00,36.9,35.8,30.44,NW,321,19.0,28.0,96,0.22,,,0.34,meteohub,2013-05-02 06:37:00,
2013-05-02 01:42:00,36.7,35.6,30.41,NNE,20,16.0,27.0,96,0.30,,,0.41,meteohub,2013-05-02 06:42:00,
2013-05-02 01:47:00,36.9,35.8,30.40,NW,307,10.0,27.0,96,0.31,,,0.45,meteohub,2013-05-02 06:47:00,
2013-05-02 01:52:00,36.7,35.6,30.45,NNE,15,8.0,33.0,96,0.36,,,0.51,meteohub,2013-05-02 06:52:00,
2013-05-02 01:57:00,36.7,35.6,30.41,NNW,348,18.0,33.0,96,0.36,,,0.52,meteohub,2013-05-02 06:57:00,
2013-05-02 02:02:00,36.7,35.6,30.42,NNE,23,14.0,28.0,96,0.34,,,0.52,meteohub,2013-05-02 07:02:00,
2013-05-02 02:07:00,36.9,36.1,30.43,NW,321,9.0,31.0,97,0.35,,,0.53,meteohub,2013-05-02 07:07:00,
2013-05-02 02:12:00,36.9,36.1,30.43,NNE,19,12.0,31.0,97,0.34,,,0.53,meteohub,2013-05-02 07:12:00,
2013-05-02 02:17:00,36.9,36.1,30.43,North,1,22.0,26.0,97,0.33,,,0.53,meteohub,2013-05-02 07:17:00,
2013-05-02 02:22:00,36.9,36.1,30.43,NE,37,18.0,26.0,97,0.30,,,0.53,meteohub,2013-05-02 07:22:00,
2013-05-02 02:27:00,36.9,36.1,30.44,NNW,347,18.0,29.0,97,0.29,,,0.53,meteohub,2013-05-02 07:27:00,
2013-05-02 02:32:00,37.0,36.3,30.44,NNE,22,25.0,29.0,97,0.27,,,0.53,meteohub,2013-05-02 07:32:00,
2013-05-02 02:37:00,37.0,36.3,30.43,NE,34,18.0,27.0,97,0.16,,,0.53,meteohub,2013-05-02 07:37:00,
2013-05-02 02:42:00,37.0,36.3,30.42,North,8,14.0,27.0,97,0.09,,,0.53,meteohub,2013-05-02 07:42:00,
2013-05-02 02:47:00,37.0,36.3,30.43,North,0,22.0,29.0,97,0.07,,,0.54,meteohub,2013-05-02 07:47:00,
2013-05-02 02:52:00,37.0,36.3,30.43,NW,323,13.0,29.0,97,0.03,,,0.54,meteohub,2013-05-02 07:52:00,
2013-05-02 02:57:00,37.0,36.3,30.42,NNW,342,24.0,26.0,97,0.02,,,0.54,meteohub,2013-05-02 07:57:00,
2013-05-02 03:02:00,37.0,36.3,30.43,North,5,23.0,27.0,97,0.01,,,0.54,meteohub,2013-05-02 08:02:00,
2013-05-02 03:07:00,36.9,36.1,30.43,NNW,341,18.0,31.0,97,0.01,,,0.54,meteohub,2013-05-02 08:07:00,
2013-05-02 03:12:00,37.0,36.3,30.44,NE,40,23.0,31.0,97,0.01,,,0.54,meteohub,2013-05-02 08:12:00,
2013-05-02 03:17:00,37.0,36.3,30.44,North,9,20.0,31.0,97,0.01,,,0.54,meteohub,2013-05-02 08:17:00,
2013-05-02 03:22:00,37.0,36.3,30.45,North,356,23.0,30.0,97,0.01,,,0.54,meteohub,2013-05-02 08:22:00,
2013-05-02 03:27:00,37.0,36.3,30.44,North,357,19.0,37.0,97,0.01,,,0.54,meteohub,2013-05-02 08:27:00,
2013-05-02 03:32:00,37.0,36.3,30.44,NE,34,27.0,37.0,97,0.01,,,0.54,meteohub,2013-05-02 08:32:00,
2013-05-02 03:37:00,37.0,36.3,30.44,NNE,27,24.0,33.0,97,0.01,,,0.54,meteohub,2013-05-02 08:37:00,
2013-05-02 03:42:00,37.0,36.3,30.45,NW,321,19.0,32.0,97,0.00,,,0.54,meteohub,2013-05-02 08:42:00,
2013-05-02 03:46:00,36.9,36.1,30.46,NW,319,9.0,32.0,97,0.00,,,0.54,meteohub,2013-05-02 08:46:00,
2013-05-02 03:52:00,36.9,36.1,30.47,NNE,29,14.0,32.0,97,0.00,,,0.54,meteohub,2013-05-02 08:52:00,
2013-05-02 03:57:00,36.7,36.0,30.47,NNW,340,12.0,29.0,97,0.00,,,0.54,meteohub,2013-05-02 08:57:00,
2013-05-02 04:02:00,36.9,36.1,30.47,NNW,335,16.0,33.0,97,0.00,,,0.54,meteohub,2013-05-02 09:02:00,
2013-05-02 04:06:00,36.9,36.1,30.47,NNW,335,15.0,33.0,97,0.00,,,0.54,meteohub,2013-05-02 09:06:00,
2013-05-02 04:12:00,36.5,35.8,30.48,North,5,19.0,33.0,97,0.00,,,0.54,meteohub,2013-05-02 09:12:00,
2013-05-02 04:17:00,36.3,35.6,30.48,NW,319,19.0,31.0,97,0.00,,,0.54,meteohub,2013-05-02 09:17:00,
2013-05-02 04:22:00,36.1,35.4,30.48,NNW,345,26.0,31.0,97,0.01,,,0.54,meteohub,2013-05-02 09:22:00,
2013-05-02 04:27:00,36.1,35.4,30.47,NNW,340,20.0,31.0,97,0.02,,,0.56,meteohub,2013-05-02 09:27:00,
2013-05-02 04:32:00,36.1,35.4,30.49,NW,321,13.0,30.0,97,0.02,,,0.56,meteohub,2013-05-02 09:32:00,
2013-05-02 04:37:00,36.3,35.6,30.49,NNW,332,11.0,30.0,97,0.02,,,0.56,meteohub,2013-05-02 09:37:00,
2013-05-02 04:42:00,36.3,35.6,30.49,NNW,335,20.0,30.0,97,0.02,,,0.56,meteohub,2013-05-02 09:42:00,
2013-05-02 04:47:00,36.1,35.4,30.49,NNW,343,25.0,28.0,97,0.02,,,0.56,meteohub,2013-05-02 09:47:00,
2013-05-02 04:52:00,36.1,35.4,30.49,NNW,341,18.0,31.0,97,0.02,,,0.56,meteohub,2013-05-02 09:52:00,
2013-05-02 04:57:00,36.0,35.2,30.49,North,352,13.0,31.0,97,0.02,,,0.56,meteohub,2013-05-02 09:57:00,
2013-05-02 05:02:00,36.0,35.2,30.50,North,349,18.0,33.0,97,0.02,,,0.56,meteohub,2013-05-02 10:02:00,
2013-05-02 05:06:00,36.0,35.2,30.50,WNW,298,19.0,33.0,97,0.02,,,0.56,meteohub,2013-05-02 10:06:00,
2013-05-02 05:11:00,35.8,35.1,30.50,NNE,12,21.0,33.0,97,0.02,,,0.56,meteohub,2013-05-02 10:11:00,
2013-05-02 05:16:00,35.8,35.1,30.50,NNW,334,28.0,36.0,97,0.03,,,0.57,meteohub,2013-05-02 10:16:00,
2013-05-02 05:21:00,35.6,34.9,30.50,NW,321,20.0,36.0,97,0.02,,,0.57,meteohub,2013-05-02 10:21:00,
2013-05-02 05:26:00,35.6,34.9,30.50,WNW,301,13.0,36.0,97,0.01,,,0.57,meteohub,2013-05-02 10:26:00,
2013-05-02 05:31:00,35.6,34.9,30.51,NNW,345,21.0,31.0,97,0.01,,,0.57,meteohub,2013-05-02 10:31:00,
2013-05-02 05:36:00,35.4,34.7,30.51,NNW,328,10.0,31.0,97,0.01,,,0.57,meteohub,2013-05-02 10:36:00,
2013-05-02 05:41:00,35.4,34.7,30.51,NNW,335,18.0,31.0,97,0.02,,,0.58,meteohub,2013-05-02 10:41:00,
2013-05-02 05:46:00,35.4,34.7,30.55,WNW,294,26.0,33.0,97,0.02,,,0.58,meteohub,2013-05-02 10:46:00,
2013-05-02 05:51:00,35.2,34.5,30.54,NNE,13,14.0,33.0,97,0.02,,,0.58,meteohub,2013-05-02 10:51:00,
2013-05-02 05:56:00,35.1,34.3,30.48,North,6,19.0,30.0,97,0.02,,,0.58,meteohub,2013-05-02 10:56:00,
2013-05-02 06:01:00,35.1,34.3,30.49,NNE,13,23.0,32.0,97,0.03,,,0.59,meteohub,2013-05-02 11:01:00,
2013-05-02 06:06:00,34.9,34.2,30.53,NW,307,35.0,41.0,97,0.03,,,0.59,meteohub,2013-05-02 11:06:00,
2013-05-02 06:11:00,35.1,34.3,30.53,NNW,328,16.0,41.0,97,0.04,,,0.60,meteohub,2013-05-02 11:11:00,
2013-05-02 06:17:00,34.9,34.2,30.52,NNE,15,27.0,41.0,97,0.03,,,0.60,meteohub,2013-05-02 11:17:00,
2013-05-02 06:22:00,34.9,34.2,30.51,NNE,29,24.0,37.0,97,0.04,,,0.61,meteohub,2013-05-02 11:22:00,
2013-05-02 06:27:00,34.9,34.2,30.50,NNW,347,28.0,39.0,97,0.04,,,0.61,meteohub,2013-05-02 11:27:00,
2013-05-02 06:32:00,35.1,34.3,30.53,NW,316,17.0,39.0,97,0.04,,,0.61,meteohub,2013-05-02 11:32:00,
2013-05-02 06:37:00,35.1,34.3,30.54,NW,326,26.0,39.0,97,0.03,,,0.61,meteohub,2013-05-02 11:37:00,
2013-05-02 06:42:00,35.1,34.3,30.55,NNW,342,14.0,36.0,97,0.03,,,0.61,meteohub,2013-05-02 11:42:00,
2013-05-02 06:47:00,35.1,34.3,30.53,NNW,345,18.0,31.0,97,0.04,,,0.62,meteohub,2013-05-02 11:47:00,
2013-05-02 06:52:00,35.1,34.3,30.54,North,352,15.0,35.0,97,0.04,,,0.62,meteohub,2013-05-02 11:52:00,
2013-05-02 06:57:00,34.9,34.2,30.55,NW,323,24.0,35.0,97,0.04,,,0.62,meteohub,2013-05-02 11:57:00,
2013-05-02 07:02:00,34.9,34.2,30.56,NNW,340,18.0,40.0,97,0.03,,,0.62,meteohub,2013-05-02 12:02:00,
2013-05-02 07:07:00,34.9,34.2,30.56,NNE,29,27.0,40.0,97,0.03,,,0.62,meteohub,2013-05-02 12:07:00,
2013-05-02 07:12:00,34.9,34.2,30.56,North,11,21.0,40.0,97,0.02,,,0.62,meteohub,2013-05-02 12:12:00,
2013-05-02 07:17:00,34.9,34.2,30.56,NNW,340,15.0,40.0,97,0.02,,,0.62,meteohub,2013-05-02 12:17:00,
2013-05-02 07:22:00,35.1,34.3,30.57,North,359,20.0,31.0,97,0.01,,,0.62,meteohub,2013-05-02 12:22:00,
2013-05-02 07:27:00,35.1,34.3,30.58,North,4,21.0,35.0,97,0.01,,,0.62,meteohub,2013-05-02 12:27:00,
2013-05-02 07:32:00,35.1,34.3,30.56,North,1,34.0,35.0,97,0.01,,,0.62,meteohub,2013-05-02 12:32:00,
2013-05-02 07:37:00,35.2,34.5,30.57,NNE,15,30.0,43.0,97,0.01,,,0.62,meteohub,2013-05-02 12:37:00,
2013-05-02 07:42:00,35.1,34.3,30.59,NNE,19,26.0,43.0,97,0.01,,,0.62,meteohub,2013-05-02 12:42:00,
2013-05-02 07:47:00,35.2,34.5,30.58,NNW,332,15.0,43.0,97,0.01,,,0.63,meteohub,2013-05-02 12:47:00,
2013-05-02 07:52:00,35.2,34.5,30.59,North,351,17.0,35.0,97,0.01,,,0.63,meteohub,2013-05-02 12:52:00,
2013-05-02 07:57:00,35.2,34.5,30.61,NNE,26,23.0,29.0,97,0.01,,,0.63,meteohub,2013-05-02 12:57:00,
2013-05-02 08:02:00,35.2,34.5,30.59,North,355,14.0,31.0,97,0.02,,,0.63,meteohub,2013-05-02 13:02:00,
2013-05-02 08:07:00,35.2,34.5,30.58,NE,42,25.0,32.0,97,0.02,,,0.64,meteohub,2013-05-02 13:07:00,
2013-05-02 08:12:00,34.9,34.2,30.58,NNE,23,22.0,34.0,97,0.02,,,0.64,meteohub,2013-05-02 13:12:00,
2013-05-02 08:17:00,34.7,34.0,30.58,NNW,347,17.0,34.0,97,0.02,,,0.64,meteohub,2013-05-02 13:17:00,
2013-05-02 08:22:00,34.5,33.8,30.57,NNE,29,12.0,34.0,97,0.02,,,0.64,meteohub,2013-05-02 13:22:00,
2013-05-02 08:27:00,34.5,33.8,30.57,North,358,19.0,35.0,97,0.02,,,0.64,meteohub,2013-05-02 13:27:00,
2013-05-02 08:32:00,34.3,33.6,30.58,North,350,23.0,37.0,97,0.02,,,0.64,meteohub,2013-05-02 13:32:00,
2013-05-02 08:37:00,34.3,33.6,30.58,NNE,13,20.0,37.0,97,0.02,,,0.64,meteohub,2013-05-02 13:37:00,
2013-05-02 08:42:00,34.3,33.6,30.59,North,358,21.0,37.0,97,0.01,,,0.64,meteohub,2013-05-02 13:42:00,
2013-05-02 08:47:00,34.2,33.4,30.61,NE,41,14.0,32.0,97,0.01,,,0.64,meteohub,2013-05-02 13:47:00,
2013-05-02 08:52:00,34.0,33.3,30.61,NNW,345,16.0,32.0,97,0.01,,,0.64,meteohub,2013-05-02 13:52:00,
2013-05-02 08:57:00,34.0,33.3,30.61,NNW,342,21.0,32.0,97,0.01,,,0.64,meteohub,2013-05-02 13:57:00,
2013-05-02 09:01:00,34.0,33.3,30.62,NW,318,12.0,29.0,97,0.00,,,0.64,meteohub,2013-05-02 14:01:00,
2013-05-02 09:06:00,34.0,33.3,30.61,NNE,22,16.0,29.0,97,0.00,,,0.64,meteohub,2013-05-02 14:06:00,
2013-05-02 09:11:00,34.0,33.3,30.62,NNW,340,19.0,27.0,97,0.01,,,0.65,meteohub,2013-05-02 14:11:00,
2013-05-02 09:16:00,34.2,33.4,30.64,NNE,13,10.0,29.0,97,0.01,,,0.65,meteohub,2013-05-02 14:16:00,
2013-05-02 09:22:00,34.0,33.3,30.64,NNW,347,12.0,29.0,97,0.01,,,0.65,meteohub,2013-05-02 14:22:00,
2013-05-02 09:27:00,34.0,33.3,30.63,NW,323,18.0,29.0,97,0.01,,,0.65,meteohub,2013-05-02 14:27:00,
2013-05-02 09:32:00,34.0,33.3,30.64,NNW,328,19.0,28.0,97,0.01,,,0.65,meteohub,2013-05-02 14:32:00,
2013-05-02 09:37:00,34.0,33.3,30.63,NW,326,13.0,28.0,97,0.01,,,0.65,meteohub,2013-05-02 14:37:00,
2013-05-02 09:42:00,34.2,33.4,30.63,North,353,17.0,27.0,97,0.02,,,0.66,meteohub,2013-05-02 14:42:00,
2013-05-02 09:47:00,34.3,33.8,30.62,NE,44,14.0,29.0,98,0.02,,,0.66,meteohub,2013-05-02 14:47:00,
2013-05-02 09:52:00,34.5,34.0,30.62,NNE,15,16.0,29.0,98,0.02,,,0.66,meteohub,2013-05-02 14:52:00,
2013-05-02 09:57:00,34.5,34.0,30.63,NNW,345,21.0,32.0,98,0.02,,,0.66,meteohub,2013-05-02 14:57:00,
2013-05-02 10:02:00,34.7,34.2,30.62,NNE,19,20.0,35.0,98,0.02,,,0.66,meteohub,2013-05-02 15:02:00,
2013-05-02 10:07:00,34.9,34.3,30.63,NW,326,28.0,35.0,98,0.01,,,0.66,meteohub,2013-05-02 15:07:00,
2013-05-02 10:12:00,34.9,34.3,30.61,NNE,13,24.0,35.0,98,0.01,,,0.66,meteohub,2013-05-02 15:12:00,
2013-05-02 10:17:00,34.9,34.3,30.61,North,350,25.0,35.0,98,0.01,,,0.66,meteohub,2013-05-02 15:17:00,
2013-05-02 10:22:00,35.1,34.5,30.62,NNE,22,19.0,35.0,98,0.01,,,0.66,meteohub,2013-05-02 15:22:00,
2013-05-02 10:27:00,35.1,34.5,30.62,North,357,27.0,36.0,98,0.01,,,0.66,meteohub,2013-05-02 15:27:00,
2013-05-02 10:32:00,35.2,34.7,30.61,North,4,22.0,36.0,98,0.01,,,0.66,meteohub,2013-05-02 15:32:00,
2013-05-02 10:37:00,35.2,34.7,30.61,North,8,20.0,36.0,98,0.00,,,0.66,meteohub,2013-05-02 15:37:00,
2013-05-02 10:42:00,35.2,34.7,30.62,NNW,343,28.0,33.0,98,0.00,,,0.66,meteohub,2013-05-02 15:42:00,
2013-05-02 10:47:00,35.1,34.5,30.62,NNE,32,22.0,34.0,98,0.00,,,0.66,meteohub,2013-05-02 15:47:00,
2013-05-02 10:52:00,35.1,34.5,30.64,NNW,340,20.0,37.0,98,0.00,,,0.66,meteohub,2013-05-02 15:52:00,
2013-05-02 10:57:00,35.1,34.5,30.64,NW,323,21.0,37.0,98,0.00,,,0.66,meteohub,2013-05-02 15:57:00,
2013-05-02 11:02:00,35.1,34.5,30.64,NNW,343,15.0,32.0,98,0.00,,,0.66,meteohub,2013-05-02 16:02:00,
2013-05-02 11:07:00,35.1,34.5,30.64,NNW,338,23.0,31.0,98,0.00,,,0.66,meteohub,2013-05-02 16:07:00,
2013-05-02 11:12:00,35.1,34.5,30.64,NNW,340,24.0,35.0,98,0.00,,,0.66,meteohub,2013-05-02 16:12:00,
2013-05-02 11:17:00,35.1,34.5,30.64,NE,56,30.0,35.0,98,0.00,,,0.66,meteohub,2013-05-02 16:17:00,
2013-05-02 11:22:00,35.2,34.7,30.64,NNW,345,19.0,38.0,98,0.00,,,0.66,meteohub,2013-05-02 16:22:00,
2013-05-02 11:27:00,35.4,34.9,30.65,North,355,29.0,38.0,98,0.00,,,0.66,meteohub,2013-05-02 16:27:00,
2013-05-02 11:32:00,35.4,34.9,30.64,NNE,19,27.0,38.0,98,0.00,,,0.66,meteohub,2013-05-02 16:32:00,
2013-05-02 11:37:00,35.4,34.9,30.65,NW,326,22.0,38.0,98,0.00,,,0.66,meteohub,2013-05-02 16:37:00,
2013-05-02 11:42:00,35.6,35.1,30.64,North,8,32.0,38.0,98,0.00,,,0.66,meteohub,2013-05-02 16:42:00,
2013-05-02 11:47:00,35.6,35.1,30.65,NNE,12,33.0,37.0,98,0.00,,,0.66,meteohub,2013-05-02 16:47:00,
2013-05-02 11:52:00,35.8,35.2,30.65,NE,50,21.0,37.0,98,0.00,,,0.66,meteohub,2013-05-02 16:52:00,
2013-05-02 11:57:00,36.0,35.4,30.66,NE,54,17.0,37.0,98,0.00,,,0.66,meteohub,2013-05-02 16:57:00,
2013-05-02 12:02:00,36.3,35.8,30.66,NNW,328,16.0,37.0,98,0.00,,,0.66,meteohub,2013-05-02 17:02:00,
2013-05-02 12:07:00,36.3,35.8,30.66,North,4,20.0,34.0,98,0.00,,,0.66,meteohub,2013-05-02 17:07:00,
2013-05-02 12:12:00,36.7,36.0,30.66,NNE,23,24.0,34.0,97,0.00,,,0.66,meteohub,2013-05-02 17:12:00,
2013-05-02 12:17:00,37.0,35.8,30.66,NNE,32,18.0,34.0,95,0.00,,,0.66,meteohub,2013-05-02 17:17:00,
2013-05-02 12:22:00,37.4,35.2,30.66,NNE,15,20.0,39.0,92,0.00,,,0.66,meteohub,2013-05-02 17:22:00,
2013-05-02 12:27:00,37.6,34.9,30.65,NW,319,26.0,39.0,90,0.00,,,0.66,meteohub,2013-05-02 17:27:00,
2013-05-02 12:32:00,37.9,35.2,30.66,North,8,16.0,39.0,90,0.00,,,0.66,meteohub,2013-05-02 17:32:00,
2013-05-02 12:37:00,37.9,34.7,30.66,North,352,16.0,31.0,88,0.00,,,0.66,meteohub,2013-05-02 17:37:00,
2013-05-02 12:42:00,38.1,34.0,30.66,ENE,58,10.0,30.0,85,0.00,,,0.66,meteohub,2013-05-02 17:42:00,
2013-05-02 12:47:00,38.5,34.2,30.66,North,353,19.0,30.0,84,0.00,,,0.66,meteohub,2013-05-02 17:47:00,
2013-05-02 12:52:00,38.5,34.2,30.66,North,355,20.0,30.0,84,0.00,,,0.66,meteohub,2013-05-02 17:52:00,
2013-05-02 12:57:00,38.7,34.5,30.66,North,4,24.0,30.0,85,0.00,,,0.66,meteohub,2013-05-02 17:57:00,
2013-05-02 13:01:00,38.8,34.3,30.65,NNW,335,14.0,27.0,84,0.00,,,0.66,meteohub,2013-05-02 18:01:00,
2013-05-02 13:06:00,38.8,34.3,30.66,NNW,335,14.0,27.0,84,0.00,,,0.66,meteohub,2013-05-02 18:06:00,
2013-05-02 13:11:00,39.0,34.3,30.66,NNW,335,17.0,28.0,83,0.00,,,0.66,meteohub,2013-05-02 18:11:00,
2013-05-02 13:16:00,39.2,34.7,30.65,NE,37,14.0,28.0,84,0.00,,,0.66,meteohub,2013-05-02 18:16:00,
2013-05-02 13:21:00,39.4,34.7,30.65,North,354,17.0,26.0,83,0.00,,,0.66,meteohub,2013-05-02 18:21:00,
2013-05-02 13:26:00,39.6,34.9,30.64,North,6,11.0,26.0,83,0.00,,,0.66,meteohub,2013-05-02 18:26:00,
2013-05-02 13:31:00,40.1,34.7,30.64,NNW,337,14.0,24.0,81,0.00,,,0.66,meteohub,2013-05-02 18:31:00,
2013-05-02 13:36:00,40.6,34.3,30.64,NW,326,17.0,24.0,78,0.00,,,0.66,meteohub,2013-05-02 18:36:00,
2013-05-02 13:41:00,40.8,33.4,30.65,NW,325,15.0,24.0,75,0.00,,,0.66,meteohub,2013-05-02 18:41:00,
2013-05-02 13:47:00,41.2,32.5,30.64,NW,326,15.0,24.0,71,0.00,,,0.66,meteohub,2013-05-02 18:47:00,
2013-05-02 13:52:00,41.2,31.1,30.65,NNW,329,29.0,29.0,67,0.00,,,0.66,meteohub,2013-05-02 18:52:00,
2013-05-02 13:57:00,41.2,30.7,30.65,NNE,18,22.0,31.0,66,0.00,,,0.66,meteohub,2013-05-02 18:57:00,
2013-05-02 14:02:00,41.4,29.3,30.66,NNE,29,23.0,31.0,62,0.00,,,0.66,meteohub,2013-05-02 19:02:00,
2013-05-02 14:07:00,41.5,28.2,30.64,NNE,23,23.0,31.0,59,0.00,,,0.66,meteohub,2013-05-02 19:07:00,
2013-05-02 14:12:00,41.5,27.5,30.66,North,350,28.0,32.0,57,0.00,,,0.66,meteohub,2013-05-02 19:12:00,
2013-05-02 14:17:00,41.7,28.4,30.65,NNW,334,23.0,32.0,59,0.00,,,0.66,meteohub,2013-05-02 19:17:00,
2013-05-02 14:22:00,41.9,28.2,30.65,NE,41,14.0,32.0,58,0.00,,,0.66,meteohub,2013-05-02 19:22:00,
2013-05-02 14:27:00,42.3,28.9,30.65,NNE,29,21.0,32.0,59,0.00,,,0.66,meteohub,2013-05-02 19:27:00,
2013-05-02 14:32:00,42.4,29.1,30.65,NNE,32,19.0,30.0,59,0.00,,,0.66,meteohub,2013-05-02 19:32:00,
2013-05-02 14:37:00,43.0,29.3,30.64,North,357,21.0,28.0,58,0.00,,,0.66,meteohub,2013-05-02 19:37:00,
2013-05-02 14:42:00,43.3,28.8,30.64,NNE,19,13.0,28.0,56,0.00,,,0.66,meteohub,2013-05-02 19:42:00,
2013-05-02 14:47:00,43.9,28.4,30.65,North,357,19.0,28.0,54,0.00,,,0.66,meteohub,2013-05-02 19:47:00,
2013-05-02 14:52:00,43.3,26.4,30.64,North,4,19.0,32.0,51,0.00,,,0.66,meteohub,2013-05-02 19:52:00,
2013-05-02 14:57:00,43.3,26.4,30.65,NNE,22,16.0,32.0,51,0.00,,,0.66,meteohub,2013-05-02 19:57:00,
2013-05-02 15:02:00,43.3,27.0,30.65,NNE,20,18.0,36.0,52,0.00,,,0.66,meteohub,2013-05-02 20:02:00,
2013-05-02 15:07:00,43.7,28.2,30.65,NE,37,14.0,36.0,54,0.00,,,0.66,meteohub,2013-05-02 20:07:00,
2013-05-02 15:12:00,44.1,28.4,30.65,NNW,332,20.0,32.0,54,0.00,,,0.66,meteohub,2013-05-02 20:12:00,
2013-05-02 15:17:00,44.4,28.8,30.64,NNE,26,12.0,27.0,54,0.00,,,0.66,meteohub,2013-05-02 20:17:00,
2013-05-02 15:22:00,45.0,28.9,30.64,NE,44,14.0,27.0,53,0.00,,,0.66,meteohub,2013-05-02 20:22:00,
2013-05-02 15:27:00,45.3,28.8,30.64,NNW,340,14.0,27.0,52,0.00,,,0.66,meteohub,2013-05-02 20:27:00,
2013-05-02 15:32:00,46.2,28.0,30.65,NE,53,15.0,29.0,49,0.00,,,0.66,meteohub,2013-05-02 20:32:00,
2013-05-02 15:37:00,46.0,26.4,30.64,NE,43,21.0,33.0,46,0.00,,,0.66,meteohub,2013-05-02 20:37:00,
2013-05-02 15:42:00,46.2,27.1,30.64,NE,51,25.0,33.0,47,0.00,,,0.66,meteohub,2013-05-02 20:42:00,
2013-05-02 15:47:00,46.4,26.2,30.64,NNW,332,28.0,33.0,45,0.00,,,0.66,meteohub,2013-05-02 20:47:00,
2013-05-02 15:52:00,46.6,25.9,30.64,NW,326,29.0,33.0,44,0.00,,,0.66,meteohub,2013-05-02 20:52:00,
2013-05-02 15:57:00,46.8,25.5,30.64,NNE,32,13.0,32.0,43,0.00,,,0.66,meteohub,2013-05-02 20:57:00,
2013-05-02 16:02:00,47.1,27.9,30.64,NE,54,18.0,31.0,47,0.00,,,0.66,meteohub,2013-05-02 21:02:00,
2013-05-02 16:07:00,46.9,28.8,30.63,North,0,25.0,30.0,49,0.00,,,0.66,meteohub,2013-05-02 21:07:00,
2013-05-02 16:12:00,47.1,28.4,30.63,NW,316,21.0,30.0,48,0.00,,,0.66,meteohub,2013-05-02 21:12:00,
2013-05-02 16:17:00,47.1,25.7,30.63,NNW,337,29.0,30.0,43,0.00,,,0.66,meteohub,2013-05-02 21:17:00,
2013-05-02 16:22:00,47.5,25.5,30.63,North,9,22.0,37.0,42,0.00,,,0.66,meteohub,2013-05-02 21:22:00,
2013-05-02 16:27:00,47.1,25.2,30.63,North,6,31.0,37.0,42,0.00,,,0.66,meteohub,2013-05-02 21:27:00,
2013-05-02 16:32:00,47.5,26.1,30.63,NNW,337,19.0,37.0,43,0.00,,,0.66,meteohub,2013-05-02 21:32:00,
2013-05-02 16:37:00,47.5,25.0,30.63,North,351,24.0,36.0,41,0.00,,,0.66,meteohub,2013-05-02 21:37:00,
2013-05-02 16:42:00,47.7,25.7,30.63,NE,50,17.0,32.0,42,0.00,,,0.66,meteohub,2013-05-02 21:42:00,
2013-05-02 16:47:00,47.7,26.2,30.63,NNE,12,22.0,35.0,43,0.00,,,0.66,meteohub,2013-05-02 21:47:00,
2013-05-02 16:52:00,47.8,25.3,30.63,NNW,348,22.0,35.0,41,0.00,,,0.66,meteohub,2013-05-02 21:52:00,
2013-05-02 16:57:00,47.8,24.6,30.63,NNW,335,11.0,35.0,40,0.00,,,0.66,meteohub,2013-05-02 21:57:00,
2013-05-02 17:02:00,48.0,24.3,30.63,NNW,343,27.0,35.0,39,0.00,,,0.66,meteohub,2013-05-02 22:02:00,
2013-05-02 17:08:00,48.0,25.5,30.63,North,11,15.0,35.0,41,0.00,,,0.66,meteohub,2013-05-02 22:08:00,
2013-05-02 17:13:00,48.2,23.7,30.63,NE,53,29.0,30.0,38,0.00,,,0.66,meteohub,2013-05-02 22:13:00,
2013-05-02 17:18:00,48.0,23.0,30.63,NE,37,18.0,32.0,37,0.00,,,0.66,meteohub,2013-05-02 22:18:00,
2013-05-02 17:23:00,48.6,24.1,30.62,NE,34,26.0,34.0,38,0.00,,,0.66,meteohub,2013-05-02 22:23:00,
2013-05-02 17:28:00,48.2,23.7,30.62,North,357,20.0,34.0,38,0.00,,,0.66,meteohub,2013-05-02 22:28:00,
2013-05-02 17:33:00,48.4,24.6,30.62,North,11,17.0,32.0,39,0.00,,,0.66,meteohub,2013-05-02 22:33:00,
2013-05-02 17:38:00,48.0,24.8,30.62,North,350,24.0,32.0,40,0.00,,,0.66,meteohub,2013-05-02 22:38:00,
2013-05-02 17:43:00,48.2,25.0,30.62,NW,326,14.0,37.0,40,0.00,,,0.66,meteohub,2013-05-02 22:43:00,
2013-05-02 17:48:00,48.7,24.3,30.62,North,6,17.0,37.0,38,0.00,,,0.66,meteohub,2013-05-02 22:48:00,
2013-05-02 17:53:00,48.9,22.5,30.62,NNE,12,20.0,37.0,35,0.00,,,0.66,meteohub,2013-05-02 22:53:00,
2013-05-02 17:58:00,48.6,22.8,30.62,North,0,28.0,34.0,36,0.00,,,0.66,meteohub,2013-05-02 22:58:00,
2013-05-02 18:03:00,48.6,24.1,30.63,NE,41,14.0,39.0,38,0.00,,,0.66,meteohub,2013-05-02 23:03:00,
2013-05-02 18:08:00,48.7,24.8,30.62,NNW,347,22.0,39.0,39,0.00,,,0.66,meteohub,2013-05-02 23:08:00,
2013-05-02 18:13:00,48.7,26.1,30.62,ENE,57,23.0,39.0,41,0.00,,,0.66,meteohub,2013-05-02 23:13:00,
2013-05-02 18:18:00,48.9,26.2,30.61,ENE,60,24.0,33.0,41,0.00,,,0.66,meteohub,2013-05-02 23:18:00,
2013-05-02 18:23:00,48.6,25.9,30.62,NNE,12,25.0,30.0,41,0.00,,,0.66,meteohub,2013-05-02 23:23:00,
2013-05-02 18:28:00,48.6,26.4,30.62,NNW,340,18.0,31.0,42,0.00,,,0.66,meteohub,2013-05-02 23:28:00,
2013-05-02 18:33:00,48.6,27.1,30.61,NE,54,16.0,31.0,43,0.00,,,0.66,meteohub,2013-05-02 23:33:00,
2013-05-02 18:38:00,48.4,27.0,30.62,NE,54,20.0,31.0,43,0.00,,,0.66,meteohub,2013-05-02 23:38:00,
2013-05-02 18:43:00,48.0,27.7,30.62,NNE,26,22.0,29.0,45,0.00,,,0.66,meteohub,2013-05-02 23:43:00,
2013-05-02 18:48:00,48.0,27.7,30.61,North,351,16.0,29.0,45,0.00,,,0.66,meteohub,2013-05-02 23:48:00,
2013-05-02 18:53:00,48.0,28.2,30.61,NE,44,12.0,29.0,46,0.00,,,0.66,meteohub,2013-05-02 23:53:00,
2013-05-02 18:58:00,48.0,28.8,30.62,NE,56,15.0,25.0,47,0.00,,,0.66,meteohub,2013-05-02 23:58:00,
2013-05-02 19:03:00,48.0,29.3,30.61,NNE,30,16.0,25.0,48,0.00,,,0.66,meteohub,2013-05-03 00:03:00,
2013-05-02 19:08:00,47.8,28.6,30.61,NE,37,16.0,25.0,47,0.00,,,0.66,meteohub,2013-05-03 00:08:00,
2013-05-02 19:13:00,47.8,28.6,30.61,NE,54,16.0,26.0,47,0.00,,,0.66,meteohub,2013-05-03 00:13:00,
2013-05-02 19:18:00,47.8,29.1,30.61,NE,37,15.0,26.0,48,0.00,,,0.66,meteohub,2013-05-03 00:18:00,
2013-05-02 19:23:00,47.8,29.1,30.61,NE,54,15.0,27.0,48,0.00,,,0.66,meteohub,2013-05-03 00:23:00,
2013-05-02 19:28:00,48.0,27.7,30.61,North,357,13.0,27.0,45,0.00,,,0.66,meteohub,2013-05-03 00:28:00,
2013-05-02 19:33:00,48.0,26.6,30.61,NE,45,21.0,27.0,43,0.00,,,0.66,meteohub,2013-05-03 00:33:00,
2013-05-02 19:38:00,48.0,27.1,30.61,ENE,61,14.0,23.0,44,0.00,,,0.66,meteohub,2013-05-03 00:38:00,
2013-05-02 19:43:00,47.8,27.0,30.61,North,4,13.0,26.0,44,0.00,,,0.66,meteohub,2013-05-03 00:43:00,
2013-05-02 19:48:00,47.7,27.3,30.61,North,0,13.0,26.0,45,0.00,,,0.66,meteohub,2013-05-03 00:48:00,
2013-05-02 19:53:00,47.5,27.7,30.61,North,4,19.0,28.0,46,0.00,,,0.66,meteohub,2013-05-03 00:53:00,
2013-05-02 19:58:00,47.1,27.3,30.62,North,11,17.0,28.0,46,0.00,,,0.66,meteohub,2013-05-03 00:58:00,
2013-05-02 20:03:00,46.9,27.7,30.62,NNW,348,18.0,28.0,47,0.00,,,0.66,meteohub,2013-05-03 01:03:00,
2013-05-02 20:08:00,46.8,27.7,30.62,NNW,347,14.0,27.0,47,0.00,,,0.66,meteohub,2013-05-03 01:08:00,
2013-05-02 20:13:00,46.6,28.4,30.62,NNE,20,10.0,24.0,49,0.00,,,0.66,meteohub,2013-05-03 01:13:00,
2013-05-02 20:18:00,46.2,28.6,30.62,NNE,26,15.0,24.0,50,0.00,,,0.66,meteohub,2013-05-03 01:18:00,
2013-05-02 20:23:00,46.0,28.9,30.62,NNE,19,12.0,21.0,51,0.00,,,0.66,meteohub,2013-05-03 01:23:00,
2013-05-02 20:28:00,45.9,28.8,30.62,NNW,347,12.0,21.0,51,0.00,,,0.66,meteohub,2013-05-03 01:28:00,
2013-05-02 20:33:00,45.9,29.3,30.62,North,350,10.0,19.0,52,0.00,,,0.66,meteohub,2013-05-03 01:33:00,
2013-05-02 20:39:00,45.7,29.1,30.62,NW,323,8.0,19.0,52,0.00,,,0.66,meteohub,2013-05-03 01:39:00,
2013-05-02 20:44:00,45.5,28.4,30.62,NE,50,10.0,18.0,51,0.00,,,0.66,meteohub,2013-05-03 01:44:00,
2013-05-02 20:49:00,45.5,27.9,30.62,WNW,300,11.0,18.0,50,0.00,,,0.66,meteohub,2013-05-03 01:49:00,
2013-05-02 20:54:00,45.3,27.3,30.62,NNW,335,8.0,19.0,49,0.00,,,0.66,meteohub,2013-05-03 01:54:00,
2013-05-02 20:59:00,45.1,26.1,30.62,NW,323,10.0,20.0,47,0.00,,,0.66,meteohub,2013-05-03 01:59:00,
2013-05-02 21:04:00,45.1,26.6,30.62,NE,37,13.0,20.0,48,0.00,,,0.66,meteohub,2013-05-03 02:04:00,
2013-05-02 21:09:00,45.0,26.4,30.62,NE,41,13.0,21.0,48,0.00,,,0.66,meteohub,2013-05-03 02:09:00,
2013-05-02 21:14:00,44.8,26.8,30.62,North,1,13.0,21.0,49,0.00,,,0.66,meteohub,2013-05-03 02:14:00,
2013-05-02 21:19:00,44.8,26.8,30.62,NE,37,10.0,20.0,49,0.00,,,0.66,meteohub,2013-05-03 02:19:00,
2013-05-02 21:24:00,44.6,27.1,30.62,NNE,32,8.0,20.0,50,0.00,,,0.66,meteohub,2013-05-03 02:24:00,
2013-05-02 21:29:00,44.4,27.5,30.62,NNW,345,9.0,17.0,51,0.00,,,0.66,meteohub,2013-05-03 02:29:00,
2013-05-02 21:34:00,44.2,27.7,30.62,NNW,343,13.0,17.0,52,0.00,,,0.66,meteohub,2013-05-03 02:34:00,
2013-05-02 21:39:00,44.1,27.5,30.62,NNE,26,9.0,16.0,52,0.00,,,0.66,meteohub,2013-05-03 02:39:00,
2013-05-02 21:44:00,44.1,28.0,30.62,NE,37,9.0,17.0,53,0.00,,,0.66,meteohub,2013-05-03 02:44:00,
2013-05-02 21:49:00,43.9,28.4,30.62,NNW,343,7.0,17.0,54,0.00,,,0.66,meteohub,2013-05-03 02:49:00,
2013-05-02 21:54:00,43.5,28.0,30.62,NNE,23,9.0,15.0,54,0.00,,,0.66,meteohub,2013-05-03 02:54:00,
2013-05-02 21:59:00,43.3,28.2,30.62,NE,43,5.0,12.0,55,0.00,,,0.66,meteohub,2013-05-03 02:59:00,
2013-05-02 22:04:00,43.2,28.6,30.62,North,359,9.0,11.0,56,0.00,,,0.66,meteohub,2013-05-03 03:04:00,
2013-05-02 22:09:00,43.2,28.9,30.62,NNW,340,7.0,12.0,57,0.00,,,0.66,meteohub,2013-05-03 03:09:00,
2013-05-02 22:14:00,43.0,28.8,30.62,North,6,6.0,12.0,57,0.00,,,0.66,meteohub,2013-05-03 03:14:00,
2013-05-02 22:19:00,42.6,28.9,30.62,North,6,8.0,14.0,58,0.00,,,0.66,meteohub,2013-05-03 03:19:00,
2013-05-02 22:24:00,42.6,28.9,30.62,NW,326,6.0,14.0,58,0.00,,,0.66,meteohub,2013-05-03 03:24:00,
2013-05-02 22:29:00,42.4,29.1,30.62,NW,323,3.0,14.0,59,0.00,,,0.66,meteohub,2013-05-03 03:29:00,
2013-05-02 22:34:00,42.3,29.3,30.62,NNE,16,7.0,10.0,60,0.00,,,0.66,meteohub,2013-05-03 03:34:00,
2013-05-02 22:39:00,42.1,29.7,30.62,NNE,18,4.0,10.0,61,0.00,,,0.66,meteohub,2013-05-03 03:39:00,
2013-05-02 22:44:00,41.9,29.5,30.61,NW,321,3.0,9.0,61,0.00,,,0.66,meteohub,2013-05-03 03:44:00,
2013-05-02 22:49:00,41.7,30.0,30.61,WNW,298,2.0,9.0,63,0.00,,,0.66,meteohub,2013-05-03 03:49:00,
2013-05-02 22:54:00,41.4,30.0,30.61,NW,311,4.0,9.0,64,0.00,,,0.66,meteohub,2013-05-03 03:54:00,
2013-05-02 22:59:00,41.2,30.4,30.61,NW,309,2.0,8.0,65,0.00,,,0.66,meteohub,2013-05-03 03:59:00,
2013-05-02 23:01:00,41.2,30.4,30.61,WNW,293,2.0,6.0,65,0.00,,,0.66,meteohub,2013-05-03 04:01:00,
2013-05-02 23:06:00,40.8,30.4,30.61,NW,312,2.0,6.0,66,0.00,,,0.66,meteohub,2013-05-03 04:06:00,
2013-05-02 23:11:00,40.8,30.4,30.61,North,350,4.0,6.0,66,0.00,,,0.66,meteohub,2013-05-03 04:11:00,
2013-05-02 23:16:00,40.6,30.6,30.61,NW,314,4.0,5.0,67,0.00,,,0.66,meteohub,2013-05-03 04:16:00,
2013-05-02 23:21:00,40.6,30.9,30.60,WNW,301,2.0,5.0,68,0.00,,,0.66,meteohub,2013-05-03 04:21:00,
2013-05-02 23:26:00,40.1,30.7,30.60,WNW,285,2.0,5.0,69,0.00,,,0.66,meteohub,2013-05-03 04:26:00,
2013-05-02 23:31:00,39.7,30.7,30.60,WNW,293,2.0,4.0,70,0.00,,,0.66,meteohub,2013-05-03 04:31:00,
2013-05-02 23:36:00,39.6,30.9,30.60,WNW,301,1.0,3.0,71,0.00,,,0.66,meteohub,2013-05-03 04:36:00,
2013-05-02 23:41:00,39.6,30.9,30.60,NW,314,2.0,3.0,71,0.00,,,0.66,meteohub,2013-05-03 04:41:00,
2013-05-02 23:46:00,39.4,30.7,30.60,WNW,298,1.0,3.0,71,0.00,,,0.66,meteohub,2013-05-03 04:46:00,
2013-05-02 23:51:00,39.4,31.1,30.59,WNW,298,0.0,2.0,72,0.00,,,0.66,meteohub,2013-05-03 04:51:00,
2013-05-02 23:56:00,39.4,31.5,30.59,NW,304,2.0,2.0,73,0.00,,,0.66,meteohub,2013-05-03 04:56:00,